Time;durP1;ratioP1;P1;durP2;ratioP2;P2;SDS_P1;SDS_P2;PMS_P1;PMS_P2;Temp;Humidity;BMP_temperature;BMP_pressure;BME280_temperature;BME280_humidity;BME280_pressure;Samples;Min_cycle;Max_cycle;Signal;HPM_P1;HPM_P2
2023/07/12 00:01:21;;;;;;;7.93;2.30;;;19.90;99.90;;;18.98;71.20;100563.97;5018416;28;20441;-74
2023/07/12 00:03:47;;;;;;;11.95;2.63;;;19.80;99.90;;;18.89;70.98;100548.75;5016797;28;20102;-73
2023/07/12 00:06:17;;;;;;;9.07;2.67;;;19.80;99.90;;;18.85;70.99;100545.50;5002945;28;20116;-73
2023/07/12 00:08:43;;;;;;;5.20;2.00;;;19.80;99.90;;;18.82;70.82;100553.75;5020973;28;20059;-74
2023/07/12 00:11:20;;;;;;;6.43;2.33;;;19.70;99.90;;;18.79;70.68;100554.00;5015162;28;20049;-73
2023/07/12 00:13:46;;;;;;;;;;;19.70;99.90;;;18.72;70.35;100550.13;5015854;28;20029;-73
2023/07/12 00:16:25;;;;;;;8.63;2.38;;;19.70;99.90;;;18.73;70.26;100558.03;5019564;28;19920;-73
2023/07/12 00:18:52;;;;;;;5.97;2.45;;;19.60;99.90;;;18.75;70.17;100547.22;5015005;28;20053;-74
2023/07/12 00:21:22;;;;;;;10.45;2.75;;;19.70;99.90;;;18.78;70.17;100539.81;5016517;28;20394;-73
2023/07/12 00:23:51;;;;;;;8.48;2.40;;;19.60;99.90;;;18.74;70.02;100537.53;5016029;28;20576;-73
2023/07/12 00:26:32;;;;;;;8.35;2.50;;;19.60;99.90;;;18.71;69.75;100527.13;5018034;28;20044;-73
2023/07/12 00:29:00;;;;;;;7.15;2.40;;;19.60;99.90;;;18.69;69.69;100510.41;5019426;28;20033;-73
2023/07/12 00:31:27;;;;;;;10.20;2.38;;;19.60;99.90;;;18.63;69.59;100509.09;5015899;28;20569;-73
2023/07/12 00:33:53;;;;;;;8.68;2.38;;;19.60;99.90;;;18.71;69.13;100506.63;4998911;28;20037;-73
2023/07/12 00:36:26;;;;;;;11.27;2.95;;;19.60;99.90;;;18.65;69.24;100493.81;5016002;28;20037;-73
2023/07/12 00:38:53;;;;;;;7.82;2.67;;;19.60;99.90;;;18.61;69.08;100484.38;5018233;28;20103;-73
2023/07/12 00:41:41;;;;;;;8.85;2.92;;;19.50;99.90;;;18.62;69.05;100475.41;5015931;28;20125;-73
2023/07/12 00:44:17;;;;;;;6.60;2.08;;;19.50;99.90;;;18.56;68.74;100471.44;5017597;28;20038;-74
2023/07/12 00:46:50;;;;;;;8.13;2.53;;;19.50;99.90;;;18.61;68.74;100473.69;5015676;28;20594;-73
2023/07/12 00:49:16;;;;;;;6.45;2.47;;;19.50;99.90;;;18.61;68.68;100463.88;5018761;28;20514;-73
2023/07/12 00:52:18;;;;;;;7.57;2.13;;;19.50;99.90;;;18.61;68.42;100447.88;5019859;28;20040;-73
2023/07/12 00:54:55;;;;;;;8.05;2.10;;;19.50;99.90;;;18.44;68.59;100444.00;4995827;28;20038;-74
2023/07/12 00:57:24;;;;;;;5.50;2.50;;;19.40;99.90;;;18.51;68.44;100444.31;5017242;28;20087;-73
2023/07/12 00:59:55;;;;;;;8.50;2.35;;;19.50;99.90;;;18.56;68.14;100451.94;5014434;28;20066;-74
2023/07/12 01:02:24;;;;;;;7.80;2.25;;;19.40;99.90;;;18.50;68.06;100447.94;5016005;28;20560;-74
2023/07/12 01:04:54;;;;;;;7.55;2.30;;;19.40;99.90;;;18.53;68.22;100452.16;5010099;28;20120;-73
2023/07/12 01:07:22;;;;;;;7.80;1.77;;;19.40;99.90;;;18.50;67.98;100442.59;5015396;28;20033;-74
2023/07/12 01:09:48;;;;;;;6.03;2.15;;;19.40;99.90;;;18.49;68.23;100445.41;5014985;28;20040;-73
2023/07/12 01:12:13;;;;;;;7.45;2.47;;;19.40;99.90;;;18.49;67.92;100435.59;5016257;28;20033;-73
2023/07/12 01:14:41;;;;;;;;;;;19.40;99.90;;;18.41;67.77;100433.56;5018483;28;20116;-73
2023/07/12 01:17:08;;;;;;;5.20;1.90;;;19.40;99.90;;;18.43;67.86;100431.63;5014525;28;19913;-73
2023/07/12 01:19:37;;;;;;;9.60;2.30;;;19.40;99.90;;;18.45;67.69;100426.16;5013632;28;20060;-74
2023/07/12 01:22:04;;;;;;;4.68;1.92;;;19.40;99.90;;;18.42;67.69;100421.94;5018149;28;20029;-73
2023/07/12 01:24:31;;;;;;;8.15;2.15;;;19.40;99.90;;;18.43;67.56;100417.47;5015804;28;20048;-74
2023/07/12 01:27:06;;;;;;;10.70;2.35;;;19.40;99.90;;;18.44;67.65;100408.47;5017498;28;20037;-73
2023/07/12 01:29:31;;;;;;;6.63;1.95;;;19.30;99.90;;;18.44;67.34;100401.34;5014076;28;20037;-74
2023/07/12 01:31:57;;;;;;;11.23;2.30;;;19.40;99.90;;;18.44;67.18;100395.13;5012619;28;20049;-73
2023/07/12 01:34:24;;;;;;;3.30;1.65;;;19.40;99.90;;;18.38;67.22;100390.31;5016339;28;20494;-73
2023/07/12 01:36:50;;;;;;;4.95;1.70;;;19.30;99.90;;;18.44;67.16;100381.81;5016340;28;20037;-74
2023/07/12 01:39:16;;;;;;;7.97;2.10;;;19.40;99.90;;;18.45;67.01;100372.84;5016924;28;20053;-73
2023/07/12 01:41:41;;;;;;;;;;;19.30;99.90;;;18.37;67.00;100354.00;5015310;28;20480;-74
2023/07/12 01:44:07;;;;;;;8.15;2.05;;;19.30;99.90;;;18.43;67.19;100343.66;5015141;28;20501;-73
2023/07/12 01:46:33;;;;;;;5.35;2.10;;;19.40;99.90;;;18.48;67.17;100323.75;5017776;28;20045;-73
2023/07/12 01:48:59;;;;;;;5.75;2.08;;;19.40;99.90;;;18.49;66.99;100315.63;5018202;28;20082;-73
2023/07/12 01:51:28;;;;;;;6.18;2.15;;;19.40;99.90;;;18.47;66.79;100304.25;5016000;28;20052;-73
2023/07/12 01:53:53;;;;;;;7.72;2.15;;;19.40;99.90;;;18.48;66.67;100308.59;5009826;28;20041;-74
2023/07/12 01:56:21;;;;;;;5.05;1.70;;;19.40;99.90;;;18.47;66.73;100301.59;5015171;28;20508;-73
2023/07/12 01:58:47;;;;;;;6.45;1.92;;;19.40;99.90;;;18.42;66.93;100309.13;5032949;28;20124;-73
2023/07/12 02:01:13;;;;;;;3.50;1.92;;;19.30;99.90;;;18.43;66.96;100321.50;5017416;28;20083;-74
2023/07/12 02:03:39;;;;;;;8.32;2.17;;;19.40;99.90;;;18.45;66.90;100322.22;5013572;28;20030;-73
2023/07/12 02:06:04;;;;;;;;;;;19.30;99.90;;;18.37;66.89;100322.00;5014118;28;20053;-73
2023/07/12 02:08:30;;;;;;;6.75;1.90;;;19.30;99.90;;;18.38;67.01;100310.38;5000913;28;19929;-74
2023/07/12 02:10:56;;;;;;;7.47;2.00;;;19.30;99.90;;;18.41;66.82;100310.94;5013765;28;20025;-73
2023/07/12 02:13:23;;;;;;;4.47;2.05;;;19.40;99.90;;;18.47;66.90;100306.94;5025265;28;20025;-73
2023/07/12 02:15:49;;;;;;;8.25;1.90;;;19.30;99.90;;;18.45;66.86;100293.72;5015621;28;20075;-73
2023/07/12 02:18:16;;;;;;;5.75;1.85;;;19.40;99.90;;;18.51;66.60;100292.34;5014245;28;20045;-73
2023/07/12 02:20:42;;;;;;;4.63;1.88;;;19.40;99.90;;;18.58;66.38;100288.16;4998771;28;20375;-75
2023/07/12 02:23:08;;;;;;;4.38;1.90;;;19.40;99.90;;;18.53;66.59;100282.41;5019792;28;20112;-74
2023/07/12 02:25:34;;;;;;;5.50;1.95;;;19.40;99.90;;;18.53;66.65;100269.06;5023929;28;20040;-74
2023/07/12 02:28:00;;;;;;;4.45;1.80;;;19.40;99.90;;;18.53;66.32;100246.88;5020562;28;20033;-73
2023/07/12 02:30:29;;;;;;;6.60;2.50;;;19.40;99.90;;;18.54;66.49;100244.09;5020912;28;20105;-73
2023/07/12 02:32:55;;;;;;;8.15;2.00;;;19.40;99.90;;;18.56;66.45;100231.47;5018941;28;20030;-73
2023/07/12 02:35:31;;;;;;;5.88;2.38;;;19.40;99.90;;;18.55;66.10;100229.78;5020425;28;20037;-73
2023/07/12 02:37:59;;;;;;;9.80;2.05;;;19.50;99.90;;;18.55;66.01;100224.47;5024535;28;20029;-74
2023/07/12 02:40:26;;;;;;;4.38;1.85;;;19.50;99.90;;;18.64;65.76;100217.47;5020785;28;20045;-74
2023/07/12 02:42:53;;;;;;;5.53;1.80;;;19.50;99.90;;;18.70;65.64;100216.06;5021599;28;20045;-73
2023/07/12 02:45:19;;;;;;;6.55;2.38;;;19.60;99.90;;;18.79;65.42;100220.59;5020520;28;20498;-74
2023/07/12 02:47:45;;;;;;;5.07;2.10;;;19.60;99.90;;;18.79;65.19;100221.47;5024087;28;20102;-74
2023/07/12 02:50:11;;;;;;;4.32;2.13;;;19.70;99.90;;;18.85;65.13;100214.72;5025618;28;20029;-73
2023/07/12 02:52:37;;;;;;;;;;;19.70;99.90;;;18.85;65.14;100204.06;5019078;28;20029;-73
2023/07/12 02:55:03;;;;;;;9.90;2.20;;;19.70;99.90;;;18.82;65.05;100178.50;5015033;28;19924;-74
2023/07/12 02:57:29;;;;;;;6.30;2.22;;;19.80;99.90;;;18.94;64.88;100179.25;5021446;28;20041;-74
2023/07/12 02:59:54;;;;;;;4.35;1.73;;;19.80;99.90;;;18.97;64.71;100173.63;5023448;28;20029;-73
2023/07/12 03:02:20;;;;;;;7.72;2.20;;;19.80;99.90;;;19.07;64.49;100173.63;5020974;28;21195;-73
2023/07/12 03:04:46;;;;;;;;;;;19.90;99.90;;;19.02;64.25;100174.03;5017950;28;20531;-74
2023/07/12 03:07:12;;;;;;;4.55;2.50;;;19.90;99.90;;;19.08;64.14;100169.13;5019301;28;19924;-73
2023/07/12 03:09:38;;;;;;;5.25;2.20;;;19.90;99.90;;;19.16;64.01;100169.28;5022818;28;20033;-74
2023/07/12 03:12:05;;;;;;;7.22;2.35;;;20.00;99.90;;;19.22;63.84;100155.34;5023317;28;20080;-73
2023/07/12 03:14:31;;;;;;;7.47;2.20;;;20.10;99.90;;;19.27;63.84;100155.78;5020865;28;20038;-73
2023/07/12 03:16:56;;;;;;;8.13;2.30;;;20.20;99.90;;;19.32;63.45;100156.19;5018092;28;20021;-73
2023/07/12 03:19:23;;;;;;;9.15;2.50;;;20.10;99.90;;;19.36;63.23;100151.44;5021521;28;20065;-73
2023/07/12 03:21:48;;;;;;;6.78;2.03;;;20.20;99.90;;;19.37;63.11;100145.97;5019899;28;20299;-74
2023/07/12 03:24:14;;;;;;;5.60;2.35;;;20.20;99.90;;;19.42;63.00;100141.03;5024491;28;20056;-73
2023/07/12 03:26:40;;;;;;;;;;;20.20;99.90;;;19.46;62.89;100128.25;5021705;28;20092;-73
2023/07/12 03:29:06;;;;;;;9.90;2.30;;;20.30;99.90;;;19.49;62.90;100132.44;5019945;28;19925;-73
2023/07/12 03:31:32;;;;;;;6.85;2.08;;;20.30;99.90;;;19.51;62.87;100138.47;5020701;28;20037;-74
2023/07/12 03:33:59;;;;;;;7.63;2.33;;;20.40;99.90;;;19.60;62.61;100134.94;5018678;28;20528;-74
2023/07/12 03:36:30;;;;;;;9.60;2.30;;;20.40;99.90;;;19.60;62.63;100125.09;5013307;28;20037;-74
2023/07/12 03:38:58;;;;;;;7.88;2.50;;;20.50;99.90;;;19.67;62.47;100122.69;5016229;28;20103;-73
2023/07/12 03:41:24;;;;;;;5.82;2.30;;;20.50;99.90;;;19.71;62.61;100112.59;5018306;28;20510;-73
2023/07/12 03:43:51;;;;;;;7.28;2.33;;;20.50;99.90;;;19.79;62.21;100108.22;5019257;28;20073;-73
2023/07/12 03:46:17;;;;;;;4.95;2.65;;;20.60;99.90;;;19.83;62.07;100096.25;5017778;28;20049;-73
2023/07/12 03:48:44;;;;;;;7.57;2.30;;;20.60;99.90;;;19.81;62.29;100090.22;5020610;28;20041;-73
2023/07/12 03:51:14;;;;;;;10.18;2.15;;;20.60;99.90;;;19.82;61.82;100081.19;5013116;28;20071;-74
2023/07/12 03:53:40;;;;;;;11.38;2.70;;;20.70;99.90;;;19.89;62.23;100086.78;5017716;28;20091;-73
2023/07/12 03:56:06;;;;;;;5.90;2.20;;;20.70;99.90;;;19.85;61.83;100086.25;5018600;28;20756;-73
2023/07/12 03:58:37;;;;;;;6.70;2.60;;;20.70;99.90;;;19.95;61.93;100072.00;5019375;28;20033;-73
2023/07/12 04:01:08;;;;;;;6.07;2.58;;;20.80;99.90;;;19.90;61.98;100048.41;5013275;28;20045;-74
2023/07/12 04:03:34;;;;;;;4.93;2.22;;;20.70;99.90;;;19.80;62.99;100035.09;5015932;28;20113;-73
2023/07/12 04:53:49;;;;;;;12.13;5.23;;;17.30;99.90;;;15.97;100.00;100230.53;5023651;28;20905;-79
2023/07/12 04:56:20;;;;;;;16.48;4.82;;;17.10;99.90;;;15.88;100.00;100222.44;4987329;28;20292;-78
2023/07/12 04:58:46;;;;;;;9.75;4.90;;;17.10;99.90;;;15.91;100.00;100199.13;4974740;28;20128;-77
2023/07/12 05:01:13;;;;;;;15.50;4.85;;;17.10;99.90;;;15.97;100.00;100189.88;5015330;28;20045;-76
2023/07/12 05:03:39;;;;;;;14.25;4.57;;;17.10;99.90;;;16.03;100.00;100196.53;5024026;28;20107;-76
2023/07/12 05:06:04;;;;;;;17.10;4.65;;;17.10;99.90;;;16.16;100.00;100205.22;5034804;28;20409;-77
2023/07/12 05:08:30;;;;;;;10.80;4.25;;;17.20;99.90;;;16.26;100.00;100176.09;5034671;28;20042;-77
2023/07/12 05:10:59;;;;;;;;;;;17.20;99.90;;;16.16;100.00;100171.53;4992291;28;20029;-77
2023/07/12 05:13:25;;;;;;;8.95;4.72;;;17.20;99.90;;;16.13;100.00;100147.88;5002261;28;20556;-77
2023/07/12 05:15:52;;;;;;;13.20;4.55;;;17.20;99.90;;;16.02;100.00;100139.88;5035642;28;20066;-77
2023/07/12 05:18:19;;;;;;;9.25;4.20;;;17.20;99.90;;;16.01;100.00;100151.50;5033182;28;20052;-77
2023/07/12 05:20:45;;;;;;;13.82;5.38;;;17.10;99.90;;;16.11;100.00;100115.28;5009900;28;20079;-78
2023/07/12 05:23:11;;;;;;;13.25;4.72;;;17.20;99.90;;;16.15;100.00;100094.63;5024862;28;20075;-77
2023/07/12 05:25:46;;;;;;;16.05;4.78;;;17.20;99.90;;;16.26;100.00;100099.06;4988132;28;20105;-76
2023/07/12 05:28:12;;;;;;;9.02;4.10;;;17.20;99.90;;;16.34;100.00;100094.00;5026310;28;20037;-76
2023/07/12 05:30:37;;;;;;;8.85;4.57;;;17.30;99.90;;;16.41;100.00;100089.84;5033892;28;20178;-76
2023/07/12 05:33:03;;;;;;;13.90;4.28;;;17.30;99.90;;;16.36;100.00;100076.13;5032641;28;20164;-77
2023/07/12 05:35:29;;;;;;;10.45;4.97;;;17.40;99.90;;;16.49;100.00;100089.25;5012395;28;20137;-76
2023/07/12 05:37:57;;;;;;;11.65;4.28;;;17.40;99.90;;;16.61;100.00;100109.50;5019953;28;20120;-74
2023/07/12 05:40:24;;;;;;;11.20;4.95;;;17.50;99.90;;;16.78;100.00;100108.97;5017236;28;20037;-76
2023/07/12 05:42:50;;;;;;;6.82;4.22;;;17.60;99.90;;;16.83;100.00;100105.97;5026413;28;20044;-76
2023/07/12 05:45:16;;;;;;;14.38;4.70;;;17.70;99.90;;;17.03;100.00;100128.22;5024133;28;20827;-76
2023/07/12 05:47:45;;;;;;;9.60;4.38;;;17.90;99.90;;;17.25;100.00;100143.25;5033354;28;20041;-76
2023/07/12 05:50:13;;;;;;;12.43;4.47;;;18.10;99.90;;;17.50;100.00;100151.84;5016615;28;20029;-75
2023/07/12 05:52:39;;;;;;;12.38;5.45;;;18.30;99.90;;;17.67;100.00;100126.41;5032869;28;20045;-76
2023/07/12 05:55:08;;;;;;;14.45;4.78;;;18.40;99.90;;;17.80;100.00;100141.22;5032923;28;20054;-76
2023/07/12 05:57:34;;;;;;;12.60;4.88;;;18.50;99.90;;;18.00;100.00;100147.50;5032554;28;20199;-76
2023/07/12 06:00:01;;;;;;;10.30;4.60;;;18.70;99.90;;;18.27;99.69;100177.19;5033929;28;20077;-75
2023/07/12 06:02:27;;;;;;;8.48;4.30;;;19.00;99.90;;;18.60;99.18;100181.41;5030408;28;20072;-75
2023/07/12 06:04:53;;;;;;;14.90;4.90;;;19.30;99.90;;;19.32;96.90;100185.56;5018830;28;20049;-75
2023/07/12 06:07:19;;;;;;;10.35;4.38;;;20.00;99.90;;;20.85;88.56;100174.69;5021421;28;20045;-76
2023/07/12 06:09:45;;;;;;;9.65;4.35;;;21.00;99.90;;;22.24;82.07;100189.16;5021019;28;20040;-76
2023/07/12 06:12:11;;;;;;;10.70;4.00;;;22.10;99.90;;;23.45;74.37;100198.72;5007610;28;20654;-74
2023/07/12 06:14:37;;;;;;;8.05;4.00;;;23.00;99.90;;;24.24;70.78;100210.56;5003787;28;20265;-74
2023/07/12 06:17:05;;;;;;;9.85;3.65;;;23.70;99.90;;;24.16;68.21;100203.34;5014105;28;20030;-75
2023/07/12 06:19:31;;;;;;;13.77;4.18;;;23.90;99.90;;;23.68;69.60;100172.84;5020813;28;20029;-74
2023/07/12 06:21:56;;;;;;;8.60;3.78;;;23.90;99.90;;;24.28;69.01;100179.63;5009451;28;20053;-74
2023/07/12 06:24:23;;;;;;;9.98;3.83;;;24.20;99.90;;;24.49;68.33;100191.66;5018057;28;20449;-75
2023/07/12 06:26:48;;;;;;;10.38;4.15;;;24.60;99.90;;;25.36;67.04;100207.69;5020050;28;20037;-74
2023/07/12 06:29:14;;;;;;;7.80;4.18;;;25.40;99.90;;;26.84;63.09;100236.66;5020299;28;20099;-73
2023/07/12 06:31:43;;;;;;;7.03;3.90;;;26.50;99.90;;;28.53;59.25;100247.78;5019257;28;20037;-74
2023/07/12 06:34:09;;;;;;;11.10;3.63;;;27.40;99.90;;;28.39;57.58;100227.03;5008710;28;20383;-74
2023/07/12 06:36:38;;;;;;;10.55;3.38;;;27.50;99.90;;;27.13;59.06;100214.16;5018350;28;20108;-73
2023/07/12 06:39:03;;;;;;;9.35;4.20;;;27.00;99.90;;;25.58;61.96;100204.13;5019258;28;20038;-75
2023/07/12 06:41:30;;;;;;;12.30;4.30;;;26.50;99.90;;;25.45;64.00;100190.41;5018841;28;20121;-74
2023/07/12 06:43:56;;;;;;;12.13;3.80;;;26.00;99.90;;;25.02;64.00;100189.19;5012300;28;20042;-74
2023/07/12 06:46:22;;;;;;;11.27;3.63;;;26.00;99.90;;;26.07;61.56;100188.50;4996902;28;20030;-75
2023/07/12 06:48:48;;;;;;;8.25;3.90;;;26.30;99.90;;;27.01;59.76;100188.66;5010076;28;20593;-73
2023/07/12 06:51:14;;;;;;;8.65;3.72;;;27.30;99.90;;;28.29;57.59;100199.47;5019707;28;20129;-74
2023/07/12 06:53:40;;;;;;;7.25;3.70;;;28.30;99.90;;;29.56;54.49;100236.81;5018342;28;20076;-73
2023/07/12 06:56:06;;;;;;;9.18;3.65;;;28.80;99.90;;;28.84;53.40;100259.97;5002232;28;20029;-73
2023/07/12 06:58:33;;;;;;;9.10;3.58;;;28.70;99.90;;;27.96;54.07;100252.38;5018548;28;20044;-74
2023/07/12 07:00:58;;;;;;;9.43;3.75;;;28.20;99.90;;;27.17;55.67;100236.19;5010574;28;20041;-74
2023/07/12 07:03:25;;;;;;;5.57;3.60;;;27.30;99.90;;;26.20;57.68;100229.16;5018068;28;20196;-74
2023/07/12 07:05:51;;;;;;;8.85;3.80;;;27.10;99.90;;;26.78;57.32;100246.38;5018934;28;20071;-74
2023/07/12 07:08:19;;;;;;;7.85;3.67;;;27.30;99.90;;;27.91;54.96;100260.25;5022697;28;20489;-74
2023/07/12 07:10:50;;;;;;;6.65;3.42;;;28.00;99.90;;;28.84;53.26;100266.22;5009547;28;20049;-74
2023/07/12 07:13:16;;;;;;;5.97;3.70;;;28.60;99.90;;;28.63;52.81;100269.06;5014281;28;20688;-74
2023/07/12 07:15:46;;;;;;;7.20;3.50;;;28.50;99.90;;;27.96;54.26;100246.97;5009721;28;20205;-73
2023/07/12 07:18:12;;;;;;;7.03;3.53;;;27.90;99.90;;;26.99;54.83;100261.78;4985138;28;20044;-73
2023/07/12 07:20:43;;;;;;;7.50;3.78;;;27.40;99.90;;;26.46;57.25;100261.09;5019835;28;20084;-73
2023/07/12 07:23:10;;;;;;;8.55;3.85;;;26.80;99.90;;;25.83;58.13;100246.19;5016365;28;20053;-74
2023/07/12 07:25:38;;;;;;;6.78;3.80;;;26.40;99.90;;;25.36;59.38;100229.25;5019003;28;20052;-73
2023/07/12 07:28:04;;;;;;;8.90;3.97;;;25.90;99.90;;;24.93;60.79;100228.81;5015579;28;20103;-73
2023/07/12 07:30:31;;;;;;;6.43;3.42;;;25.50;99.90;;;24.57;62.36;100232.00;5001233;28;22652;-73
2023/07/12 07:32:58;;;;;;;6.82;3.85;;;25.20;99.90;;;24.47;63.34;100239.41;5010431;28;20076;-74
2023/07/12 07:35:25;;;;;;;10.05;3.63;;;25.10;99.90;;;24.77;63.79;100237.78;4999714;28;20041;-75
2023/07/12 07:37:51;;;;;;;5.72;3.85;;;25.20;99.90;;;24.70;62.27;100228.75;5017849;28;20059;-73
2023/07/12 07:40:17;;;;;;;9.82;4.15;;;25.00;99.90;;;24.53;61.05;100234.19;5019263;28;20529;-74
2023/07/12 07:42:44;;;;;;;7.38;3.70;;;25.30;99.90;;;25.43;60.66;100251.75;4993708;28;20502;-73
2023/07/12 07:45:11;;;;;;;9.30;4.03;;;25.60;99.90;;;25.58;60.55;100251.81;5017324;28;20386;-73
2023/07/12 07:47:37;;;;;;;11.05;4.15;;;25.80;99.90;;;25.54;60.11;100262.09;5002454;28;20033;-72
2023/07/12 07:50:06;;;;;;;7.90;3.70;;;25.80;99.90;;;25.27;60.46;100257.25;5017643;28;20075;-73
2023/07/12 07:52:34;;;;;;;8.80;3.90;;;25.60;99.90;;;24.94;61.13;100265.47;5016104;28;20067;-72
2023/07/12 07:55:01;;;;;;;10.20;3.92;;;25.40;99.90;;;24.64;62.27;100254.50;5009332;28;20040;-73
2023/07/12 07:57:27;;;;;;;11.82;4.05;;;25.20;99.90;;;24.46;63.52;100262.78;5019100;28;20063;-74
2023/07/12 07:59:53;;;;;;;7.07;3.90;;;25.00;99.90;;;24.38;64.61;100253.91;5018785;28;20057;-74
2023/07/12 08:02:18;;;;;;;9.10;4.50;;;24.90;99.90;;;24.32;64.72;100247.38;5003914;28;20522;-72
2023/07/12 08:04:45;;;;;;;11.23;4.60;;;24.90;99.90;;;24.36;63.72;100251.38;5020817;28;20121;-73
2023/07/12 08:07:12;;;;;;;7.15;4.35;;;24.80;99.90;;;24.26;63.82;100267.72;5019321;28;20037;-72
2023/07/12 08:09:38;;;;;;;10.68;4.20;;;24.80;99.90;;;24.03;64.71;100290.97;5016555;28;20683;-73
2023/07/12 08:12:04;;;;;;;12.82;4.38;;;24.60;99.90;;;23.62;65.21;100299.00;5017716;28;20037;-73
2023/07/12 08:14:30;;;;;;;10.18;4.10;;;24.20;99.90;;;23.24;66.23;100314.72;5005411;28;20110;-73
2023/07/12 08:16:56;;;;;;;12.63;4.90;;;23.90;99.90;;;22.82;68.03;100313.69;5004502;28;20051;-78
2023/07/12 08:19:45;;;;;;;13.95;4.30;;;23.60;99.90;;;22.46;69.50;100303.13;5015418;28;20087;-78
2023/07/12 08:22:13;;;;;;;8.82;4.60;;;23.20;99.90;;;22.17;71.43;100295.38;4901570;28;20431;-78
2023/07/12 08:24:39;;;;;;;10.20;5.28;;;22.90;99.90;;;22.01;72.92;100287.19;4934462;28;20050;-77
2023/07/12 08:27:06;;;;;;;14.57;5.03;;;22.70;99.90;;;21.87;74.36;100288.59;4944596;28;20118;-78
2023/07/12 08:29:31;;;;;;;13.40;5.47;;;22.60;99.90;;;21.77;76.00;100287.84;4942400;28;20125;-77
2023/07/12 08:31:57;;;;;;;12.68;5.57;;;22.50;99.90;;;21.74;77.74;100298.88;4906666;28;20181;-78
2023/07/12 08:34:23;;;;;;;18.08;5.00;;;22.50;99.90;;;21.89;77.47;100308.88;4938216;28;20062;-78
2023/07/12 08:36:51;;;;;;;12.88;5.20;;;22.50;99.90;;;22.13;77.83;100310.06;4930598;28;20504;-77
2023/07/12 08:39:17;;;;;;;11.50;4.93;;;22.70;99.90;;;22.38;76.97;100303.06;4930244;28;20120;-76
2023/07/12 08:41:43;;;;;;;9.20;5.50;;;22.90;99.90;;;22.73;76.03;100317.34;4942503;28;20146;-76
2023/07/12 08:44:15;;;;;;;11.15;5.28;;;23.10;99.90;;;22.93;75.01;100316.09;4949685;28;20069;-76
2023/07/12 08:46:49;;;;;;;13.45;5.63;;;23.30;99.90;;;22.97;74.99;100319.28;4911065;28;20554;-74
2023/07/12 08:49:17;;;;;;;11.80;5.97;;;23.40;99.90;;;23.07;75.44;100319.22;4950105;28;20042;-75
2023/07/12 08:51:45;;;;;;;11.63;6.13;;;23.50;99.90;;;23.24;75.43;100320.94;4937562;28;20078;-77
2023/07/12 08:56:38;;;;;;;9.35;6.25;;;24.00;99.90;;;24.06;74.12;100304.06;4970483;23;20173;-78
2023/07/12 08:59:13;;;;;;;12.40;5.50;;;24.40;99.90;;;24.65;73.04;100315.41;4966986;28;20449;-77
2023/07/12 09:01:53;;;;;;;8.68;5.40;;;24.90;99.90;;;25.21;69.95;100312.69;4990925;28;20034;-78
2023/07/12 09:04:31;;;;;;;10.60;6.07;;;25.40;99.90;;;25.75;69.04;100322.63;4977494;28;20733;-79
2023/07/12 09:07:04;;;;;;;13.88;5.80;;;25.80;99.90;;;25.73;68.39;100320.09;4965197;28;20029;-78
2023/07/12 09:09:42;;;;;;;12.95;6.07;;;26.00;99.90;;;26.05;67.04;100306.53;4988243;28;20564;-77
2023/07/12 09:12:32;;;;;;;12.50;5.95;;;26.20;99.90;;;26.15;68.89;100312.50;4955515;28;20501;-78
2023/07/12 09:15:10;;;;;;;10.93;4.93;;;26.50;99.90;;;26.35;66.15;100302.03;4974302;23;20413;-78
2023/07/12 09:18:11;;;;;;;7.72;5.32;;;26.60;99.90;;;26.54;66.06;100315.00;4973998;28;20038;-79
2023/07/12 09:20:41;;;;;;;12.40;5.55;;;26.90;99.90;;;26.65;65.91;100304.75;4896033;28;20055;-77
2023/07/12 09:23:11;;;;;;;11.27;5.75;;;27.00;99.90;;;26.66;65.70;100309.16;4911240;28;20050;-77
2023/07/12 09:25:47;;;;;;;10.20;6.15;;;27.10;99.90;;;26.66;65.64;100320.78;4923540;28;20581;-77
2023/07/12 09:28:17;;;;;;;7.88;5.50;;;27.10;99.90;;;26.52;65.60;100318.88;4941278;28;20133;-77
2023/07/12 09:30:45;;;;;;;9.55;5.70;;;27.00;99.90;;;26.70;66.44;100327.50;4912243;28;20109;-76
2023/07/12 09:33:25;;;;;;;12.20;5.18;;;27.20;99.90;;;26.99;65.51;100340.13;4914127;28;20043;-76
2023/07/12 09:35:51;;;;;;;9.32;5.68;;;27.20;99.90;;;26.76;64.10;100342.09;4913554;28;20101;-77
2023/07/12 09:38:29;;;;;;;7.85;5.30;;;27.10;99.90;;;26.58;64.86;100334.38;4950677;28;20035;-77
2023/07/12 09:40:58;;;;;;;6.82;4.65;;;27.00;99.90;;;26.48;64.61;100341.88;4924676;28;20038;-77
2023/07/12 09:43:36;;;;;;;11.85;5.20;;;26.70;99.90;;;25.77;65.21;100340.28;4934255;28;20038;-76
2023/07/12 09:46:37;;;;;;;9.10;5.20;;;26.30;99.90;;;25.38;66.34;100332.31;4934307;28;20524;-76
2023/07/12 09:49:19;;;;;;;7.55;4.80;;;26.20;99.90;;;25.80;67.42;100347.16;4911664;28;20054;-75
2023/07/12 09:52:46;;;;;;;9.60;5.15;;;26.30;99.90;;;25.86;66.46;100330.28;4930138;28;20046;-76
2023/07/12 09:55:32;;;;;;;10.48;5.45;;;26.20;99.90;;;25.66;66.78;100329.94;4832983;29;20791;-76
2023/07/12 09:58:33;;;;;;;10.55;4.72;;;26.20;99.90;;;25.50;67.66;100322.78;4875918;29;20047;-75
2023/07/12 10:01:04;;;;;;;8.35;4.75;;;26.10;99.90;;;25.54;68.55;100340.28;4887722;29;20051;-76
2023/07/12 10:03:49;;;;;;;7.93;5.00;;;26.20;99.90;;;25.98;65.88;100342.34;4871465;29;20048;-76
2023/07/12 10:06:42;;;;;;;10.27;4.97;;;26.50;99.90;;;26.35;65.02;100346.06;4876268;29;20040;-75
2023/07/12 10:09:29;;;;;;;9.32;4.97;;;26.80;99.90;;;26.66;64.42;100353.19;4870083;29;20122;-75
2023/07/12 10:12:25;;;;;;;8.95;5.07;;;27.00;99.90;;;26.72;63.11;100355.16;4895111;29;20078;-76
2023/07/12 10:14:54;;;;;;;8.30;4.95;;;27.10;99.90;;;26.63;64.16;100348.19;4901941;29;20157;-75
2023/07/12 10:17:49;;;;;;;7.82;4.45;;;27.00;99.90;;;26.44;63.90;100348.69;4878362;29;20674;-75
2023/07/12 10:20:24;;;;;;;8.30;4.13;;;27.00;99.90;;;26.47;64.08;100354.53;4846908;29;20475;-76
2023/07/12 10:22:53;;;;;;;9.77;4.75;;;27.00;99.90;;;26.53;64.97;100351.09;4871890;29;20123;-75
2023/07/12 10:25:30;;;;;;;12.73;5.10;;;27.10;99.90;;;26.61;64.78;100358.31;4884792;29;20044;-76
2023/07/12 10:28:19;;;;;;;8.30;4.25;;;27.10;99.90;;;26.79;64.73;100358.78;4901563;29;20536;-76
2023/07/12 10:30:48;;;;;;;10.93;4.85;;;27.40;99.90;;;27.17;64.34;100364.06;4917121;28;20034;-76
2023/07/12 10:33:30;;;;;;;9.73;4.25;;;27.50;99.90;;;27.25;63.42;100365.84;4957611;28;20038;-76
2023/07/12 10:36:02;;;;;;;7.95;4.03;;;27.70;99.90;;;27.34;62.80;100371.97;4987985;28;20049;-78
2023/07/12 10:38:28;;;;;;;11.95;4.68;;;27.80;99.90;;;27.46;62.32;100373.16;4969970;28;20038;-76
2023/07/12 10:41:20;;;;;;;11.68;4.35;;;28.00;99.90;;;27.72;61.97;100374.50;4996256;28;20072;-75
2023/07/12 10:43:51;;;;;;;7.70;3.70;;;28.00;99.90;;;27.56;59.98;100370.13;4981297;28;20041;-75
2023/07/12 10:46:34;;;;;;;7.45;4.03;;;28.00;99.90;;;27.45;61.07;100385.03;4980942;28;20045;-75
2023/07/12 10:49:13;;;;;;;8.93;3.72;;;27.90;99.90;;;27.15;60.96;100379.63;4988494;28;20053;-76
2023/07/12 10:51:42;;;;;;;10.45;4.57;;;27.70;99.90;;;26.95;61.70;100368.53;4986341;28;20030;-75
2023/07/12 10:54:29;;;;;;;9.93;4.30;;;27.40;99.90;;;26.49;61.79;100373.25;4987319;28;20038;-75
2023/07/12 10:57:01;;;;;;;;;;;27.30;99.90;;;26.35;62.64;100374.88;4980702;28;20049;-76
2023/07/12 10:59:32;;;;;;;9.60;3.47;;;27.00;99.90;;;26.37;63.03;100376.41;4978722;28;19921;-75
2023/07/12 11:02:04;;;;;;;8.93;4.55;;;27.00;99.90;;;26.71;62.26;100375.06;4969905;28;20034;-75
2023/07/12 11:04:30;;;;;;;10.35;3.00;;;27.20;99.90;;;27.13;61.07;100372.75;4983905;28;20065;-76
2023/07/12 11:07:03;;;;;;;7.45;3.30;;;27.50;99.90;;;27.53;59.96;100381.34;4986283;28;20034;-75
2023/07/12 11:09:47;;;;;;;7.00;3.15;;;27.80;99.90;;;27.74;58.99;100388.66;4984352;28;20145;-76
2023/07/12 11:12:37;;;;;;;8.55;3.42;;;28.10;99.90;;;27.89;58.20;100380.53;4955203;28;20037;-76
2023/07/12 11:15:21;;;;;;;6.45;2.80;;;28.20;99.90;;;28.00;56.54;100386.25;4964154;28;20046;-76